Time;durP1;ratioP1;P1;durP2;ratioP2;P2;SDS_P1;SDS_P2;PMS_P1;PMS_P2;Temp;Humidity;BMP_temperature;BMP_pressure;BME280_temperature;BME280_humidity;BME280_pressure;Samples;Min_cycle;Max_cycle;Signal;HPM_P1;HPM_P2
2022/08/25 00:02:30;;;;;;;;;;;;;;;;;;10499739;28;19924;-62
2022/08/25 00:07:32;;;;;;;;;;;;;;;;;;10499426;28;19959;-62
2022/08/25 00:12:34;;;;;;;;;;;;;;;;;;10499314;28;19928;-62
2022/08/25 00:17:36;;;;;;;;;;;;;;;;;;10499184;28;20268;-63
2022/08/25 00:22:38;;;;;;;;;;;;;;;;;;10498373;28;19929;-62
2022/08/25 00:27:42;;;;;;;;;;;;;;;;;;10498268;28;19959;-62
2022/08/25 00:32:44;;;;;;;;;;;;;;;;;;10498476;28;19939;-62
2022/08/25 00:37:56;;;;;;;;;;;;;;;;;;10498117;28;19974;-62
2022/08/25 00:42:58;;;;;;;;;;;;;;;;;;10499016;28;19928;-62
2022/08/25 00:48:00;;;;;;;;;;;;;;;;;;10498551;28;19925;-62
2022/08/25 00:53:02;;;;;;;;;;;;;;;;;;10497996;28;20393;-62
2022/08/25 00:58:06;;;;;;;;;;;;;;;;;;10498628;28;19925;-63
2022/08/25 01:03:08;;;;;;;;;;;;;;;;;;10503459;28;19928;-62
2022/08/25 01:08:10;;;;;;;;;;;;;;;;;;10506421;28;19925;-62
2022/08/25 01:13:13;;;;;;;;;;;;;;;;;;10505749;28;20283;-62
2022/08/25 01:18:17;;;;;;;;;;;;;;;;;;10505986;28;19924;-62
2022/08/25 01:23:20;;;;;;;;;;;;;;;;;;10505738;28;19924;-62
2022/08/25 01:28:22;;;;;;;;;;;;;;;;;;10505529;28;19924;-62
2022/08/25 01:33:24;;;;;;;;;;;;;;;;;;10505092;28;19924;-62
2022/08/25 01:38:27;;;;;;;;;;;;;;;;;;10504476;28;19924;-62
2022/08/25 01:43:29;;;;;;;;;;;;;;;;;;10504337;28;19932;-62
2022/08/25 01:48:31;;;;;;;;;;;;;;;;;;10512317;22;19932;-63
2022/08/25 01:53:34;;;;;;;;;;;;;;;;;;10504704;28;19931;-63
2022/08/25 01:58:36;;;;;;;;;;;;;;;;;;10486703;28;19925;-63
2022/08/25 02:03:38;;;;;;;;;;;;;;;;;;10504188;28;20390;-63
2022/08/25 02:08:43;;;;;;;;;;;;;;;;;;10503459;28;20022;-63
2022/08/25 02:13:45;;;;;;;;;;;;;;;;;;10503595;28;19931;-63
2022/08/25 02:18:47;;;;;;;;;;;;;;;;;;10503637;28;19929;-63
2022/08/25 02:23:49;;;;;;;;;;;;;;;;;;10502896;28;20386;-63
2022/08/25 02:28:51;;;;;;;;;;;;;;;;;;10503201;28;20378;-63
2022/08/25 02:33:54;;;;;;;;;;;;;;;;;;10503145;28;19934;-63
2022/08/25 02:38:56;;;;;;;;;;;;;;;;;;10503037;28;19931;-63
2022/08/25 02:43:58;;;;;;;;;;;;;;;;;;10503045;28;19924;-63
2022/08/25 02:49:00;;;;;;;;;;;;;;;;;;10502559;28;19928;-63
2022/08/25 02:54:02;;;;;;;;;;;;;;;;;;10502289;28;19932;-63
2022/08/25 02:59:04;;;;;;;;;;;;;;;;;;10501394;28;20303;-63
2022/08/25 03:04:06;;;;;;;;;;;;;;;;;;10501266;28;20279;-63
2022/08/25 03:09:08;;;;;;;;;;;;;;;;;;10501515;28;19924;-63
2022/08/25 03:14:10;;;;;;;;;;;;;;;;;;10501608;28;19928;-63
2022/08/25 03:19:12;;;;;;;;;;;;;;;;;;10500517;28;19924;-63
2022/08/25 03:24:14;;;;;;;;;;;;;;;;;;10499647;28;20363;-63
2022/08/25 03:29:17;;;;;;;;;;;;;;;;;;10500783;28;19932;-63
2022/08/25 03:34:19;;;;;;;;;;;;;;;;;;10500681;28;19924;-63
2022/08/25 03:39:21;;;;;;;;;;;;;;;;;;10499777;28;19924;-63
2022/08/25 03:44:23;;;;;;;;;;;;;;;;;;10499485;28;19925;-63
2022/08/25 03:49:25;;;;;;;;;;;;;;;;;;10482140;28;20389;-63
2022/08/25 03:54:27;;;;;;;;;;;;;;;;;;10499947;28;19928;-63
2022/08/25 03:59:29;;;;;;;;;;;;;;;;;;10498981;28;19925;-63
2022/08/25 04:04:31;;;;;;;;;;;;;;;;;;10499433;28;20392;-63
2022/08/25 04:09:33;;;;;;;;;;;;;;;;;;10499452;28;19928;-63
2022/08/25 04:14:37;;;;;;;;;;;;;;;;;;10498683;28;20260;-63
2022/08/25 04:19:40;;;;;;;;;;;;;;;;;;10498500;28;20283;-63
2022/08/25 04:24:42;;;;;;;;;;;;;;;;;;10499053;28;19931;-63
2022/08/25 04:29:44;;;;;;;;;;;;;;;;;;10498951;28;19924;-63
2022/08/25 04:34:47;;;;;;;;;;;;;;;;;;10498122;28;19932;-63
2022/08/25 04:39:49;;;;;;;;;;;;;;;;;;10498073;28;19924;-63
2022/08/25 04:44:51;;;;;;;;;;;;;;;;;;10497936;28;19925;-63
2022/08/25 04:49:53;;;;;;;;;;;;;;;;;;10498531;28;19925;-63
2022/08/25 04:54:55;;;;;;;;;;;;;;;;;;10498530;28;20019;-63
2022/08/25 04:59:57;;;;;;;;;;;;;;;;;;10497638;28;19925;-63
2022/08/25 05:05:00;;;;;;;;;;;;;;;;;;10497649;28;19931;-63
2022/08/25 05:10:02;;;;;;;;;;;;;;;;;;10498187;28;19925;-63
2022/08/25 05:15:49;;;;;;;;;;;;;;;;;;10498078;28;19924;-63
2022/08/25 05:20:26;;;;;;;;;;;;;;;;;;10497209;28;20402;-63
2022/08/25 05:25:28;;;;;;;;;;;;;;;;;;10497871;28;19925;-63
2022/08/25 05:30:30;;;;;;;;;;;;;;;;;;10497821;28;19937;-63
2022/08/25 05:35:32;;;;;;;;;;;;;;;;;;10497764;28;19924;-63
2022/08/25 05:40:34;;;;;;;;;;;;;;;;;;10496958;28;20256;-63
2022/08/25 05:45:36;;;;;;;;;;;;;;;;;;10497310;28;19932;-63
2022/08/25 05:50:39;;;;;;;;;;;;;;;;;;10504306;28;19974;-63
2022/08/25 05:55:41;;;;;;;;;;;;;;;;;;10503943;28;19951;-63
2022/08/25 06:00:43;;;;;;;;;;;;;;;;;;10503696;28;20386;-63
2022/08/25 06:05:45;;;;;;;;;;;;;;;;;;10503622;28;19924;-63
2022/08/25 06:10:47;;;;;;;;;;;;;;;;;;10503953;28;19924;-63
2022/08/25 06:15:49;;;;;;;;;;;;;;;;;;10503891;28;19925;-63
2022/08/25 06:20:51;;;;;;;;;;;;;;;;;;10503652;28;19932;-63
2022/08/25 06:25:55;;;;;;;;;;;;;;;;;;10502886;28;20398;-63
2022/08/25 06:30:57;;;;;;;;;;;;;;;;;;10503156;28;19924;-63
2022/08/25 06:35:59;;;;;;;;;;;;;;;;;;10503311;28;19932;-63
2022/08/25 06:41:01;;;;;;;;;;;;;;;;;;10502843;28;19932;-63
2022/08/25 06:46:04;;;;;;;;;;;;;;;;;;10502737;28;19932;-63
2022/08/25 06:51:06;;;;;;;;;;;;;;;;;;10501811;28;20379;-65
2022/08/25 06:56:08;;;;;;;;;;;;;;;;;;10502300;28;19931;-65
2022/08/25 07:01:10;;;;;;;;;;;;;;;;;;10500247;28;20363;-65
2022/08/25 07:06:17;;;;;;;;;;;;;;;;;;10501210;28;20303;-65
2022/08/25 07:11:20;;;;;;;;;;;;;;;;;;10500985;28;20398;-65
2022/08/25 07:16:22;;;;;;;;;;;;;;;;;;10501420;28;19931;-65
2022/08/25 07:21:25;;;;;;;;;;;;;;;;;;10500549;28;20408;-66
2022/08/25 07:26:29;;;;;;;;;;;;;;;;;;10500384;28;19924;-65
2022/08/25 07:31:39;;;;;;;;;;;;;;;;;;10500144;28;19931;-66
2022/08/25 07:36:42;;;;;;;;;;;;;;;;;;10500626;28;19926;-66
2022/08/25 07:41:45;;;;;;;;;;;;;;;;;;10500299;28;19924;-66
2022/08/25 07:46:47;;;;;;;;;;;;;;;;;;10499702;28;19931;-66
2022/08/25 07:51:49;;;;;;;;;;;;;;;;;;10499942;28;19974;-66
2022/08/25 07:57:06;;;;;;;;;;;;;;;;;;10500499;28;19932;-66
2022/08/25 08:02:08;;;;;;;;;;;;;;;;;;10499037;28;20015;-66
2022/08/25 08:07:19;;;;;;;;;;;;;;;;;;10499609;28;20291;-66
2022/08/25 08:12:22;;;;;;;;;;;;;;;;;;10498462;28;20295;-66
2022/08/25 08:17:24;;;;;;;;;;;;;;;;;;10499236;28;19931;-64
2022/08/25 08:22:28;;;;;;;;;;;;;;;;;;10498422;28;19924;-65
2022/08/25 08:27:30;;;;;;;;;;;;;;;;;;10498355;28;20003;-65
2022/08/25 08:32:32;;;;;;;;;;;;;;;;;;10498767;28;19932;-64
2022/08/25 08:37:54;;;;;;;;;;;;;;;;;;10499170;28;19970;-65
2022/08/25 08:42:56;;;;;;;;;;;;;;;;;;10498488;28;19924;-65
2022/08/25 08:47:58;;;;;;;;;;;;;;;;;;10497783;28;19932;-65
2022/08/25 08:53:00;;;;;;;;;;;;;;;;;;10497865;28;20395;-65
2022/08/25 08:58:02;;;;;;;;;;;;;;;;;;10497821;28;19999;-65
2022/08/25 09:03:05;;;;;;;;;;;;;;;;;;10498251;28;19925;-65
2022/08/25 09:08:07;;;;;;;;;;;;;;;;;;10498160;28;19970;-65
2022/08/25 09:13:09;;;;;;;;;;;;;;;;;;10498139;28;19924;-65
2022/08/25 09:18:13;;;;;;;;;;;;;;;;;;10497979;28;19954;-65
2022/08/25 09:23:15;;;;;;;;;;;;;;;;;;10501521;28;19925;-65
2022/08/25 09:28:21;;;;;;;;;;;;;;;;;;10506199;28;19950;-66
2022/08/25 09:33:23;;;;;;;;;;;;;;;;;;10504785;28;19931;-66
2022/08/25 09:38:30;;;;;;;;;;;;;;;;;;10505691;28;20009;-66
2022/08/25 09:43:33;;;;;;;;;;;;;;;;;;10505078;28;20010;-65
2022/08/25 09:48:36;;;;;;;;;;;;;;;;;;10504094;28;20393;-65
2022/08/25 09:53:41;;;;;;;;;;;;;;;;;;10504319;28;19960;-66
2022/08/25 09:58:43;;;;;;;;;;;;;;;;;;10504088;28;19931;-66
2022/08/25 10:03:45;;;;;;;;;;;;;;;;;;10504282;28;19924;-66
2022/08/25 10:08:47;;;;;;;;;;;;;;;;;;10504167;28;19924;-66
2022/08/25 10:13:50;;;;;;;;;;;;;;;;;;10503362;28;20403;-65
2022/08/25 10:18:52;;;;;;;;;;;;;;;;;;10503811;28;19925;-66
2022/08/25 10:23:55;;;;;;;;;;;;;;;;;;10503558;28;19931;-66
2022/08/25 10:28:57;;;;;;;;;;;;;;;;;;10503188;28;19963;-66
2022/08/25 10:34:00;;;;;;;;;;;;;;;;;;10502968;28;19924;-66
2022/08/25 10:39:04;;;;;;;;;;;;;;;;;;10484721;28;20275;-66
2022/08/25 10:44:06;;;;;;;;;;;;;;;;;;10501746;28;19939;-67
2022/08/25 10:49:08;;;;;;;;;;;;;;;;;;10502547;28;19924;-67
2022/08/25 10:54:10;;;;;;;;;;;;;;;;;;10502302;28;19931;-67
2022/08/25 10:59:12;;;;;;;;;;;;;;;;;;10501491;28;20299;-67
2022/08/25 11:04:14;;;;;;;;;;;;;;;;;;10501266;28;20309;-67
2022/08/25 11:09:16;;;;;;;;;;;;;;;;;;10501219;28;19924;-66
2022/08/25 11:14:18;;;;;;;;;;;;;;;;;;10501597;28;19929;-67
2022/08/25 11:19:20;;;;;;;;;;;;;;;;;;10501410;28;19931;-67
2022/08/25 11:24:23;;;;;;;;;;;;;;;;;;10501096;28;19931;-67
2022/08/25 11:29:25;;;;;;;;;;;;;;;;;;10501058;28;19931;-67
2022/08/25 11:34:27;;;;;;;;;;;;;;;;;;10500463;28;19924;-67
2022/08/25 11:39:29;;;;;;;;;;;;;;;;;;10499876;28;20023;-67
2022/08/25 11:44:36;;;;;;;;;;;;;;;;;;10499535;28;19964;-67
2022/08/25 11:49:39;;;;;;;;;;;;;;;;;;10499555;28;19978;-67
2022/08/25 11:54:41;;;;;;;;;;;;;;;;;;10499875;28;20359;-67
2022/08/25 11:59:43;;;;;;;;;;;;;;;;;;10499816;28;19931;-67
2022/08/25 12:04:45;;;;;;;;;;;;;;;;;;10499599;28;19925;-67
2022/08/25 12:09:47;;;;;;;;;;;;;;;;;;10499534;28;19924;-67
2022/08/25 12:14:49;;;;;;;;;;;;;;;;;;10499426;28;19931;-67
2022/08/25 12:19:51;;;;;;;;;;;;;;;;;;10499229;28;19936;-67
2022/08/25 12:24:54;;;;;;;;;;;;;;;;;;10498429;28;20409;-67
2022/08/25 12:29:56;;;;;;;;;;;;;;;;;;10499272;28;19932;-67
2022/08/25 12:34:59;;;;;;;;;;;;;;;;;;10498274;28;19970;-67
2022/08/25 12:40:01;;;;;;;;;;;;;;;;;;10481460;28;19932;-67
2022/08/25 12:45:03;;;;;;;;;;;;;;;;;;10498429;28;19959;-67
2022/08/25 12:50:05;;;;;;;;;;;;;;;;;;10480890;28;19924;-67
2022/08/25 12:55:10;;;;;;;;;;;;;;;;;;10498805;28;20015;-67
2022/08/25 13:00:15;;;;;;;;;;;;;;;;;;10506264;28;19935;-67
2022/08/25 13:05:17;;;;;;;;;;;;;;;;;;10506091;28;19991;-68
2022/08/25 13:10:19;;;;;;;;;;;;;;;;;;10506571;28;19932;-67
2022/08/25 13:15:21;;;;;;;;;;;;;;;;;;10506289;28;19928;-67
2022/08/25 13:20:23;;;;;;;;;;;;;;;;;;10505935;28;19938;-68
2022/08/25 13:25:26;;;;;;;;;;;;;;;;;;10505893;28;19932;-67
2022/08/25 13:30:33;;;;;;;;;;;;;;;;;;10505668;28;20275;-67
2022/08/25 13:35:35;;;;;;;;;;;;;;;;;;10504844;28;20286;-67
2022/08/25 13:40:40;;;;;;;;;;;;;;;;;;10505196;28;19924;-67
2022/08/25 13:45:44;;;;;;;;;;;;;;;;;;10505025;28;19959;-67
2022/08/25 13:50:46;;;;;;;;;;;;;;;;;;10505024;28;20375;-67
2022/08/25 13:55:51;;;;;;;;;;;;;;;;;;10504702;28;19964;-67
2022/08/25 14:00:53;;;;;;;;;;;;;;;;;;10530220;22;19928;-68
2022/08/25 14:06:00;;;;;;;;;;;;;;;;;;10546394;28;19924;-68
2022/08/25 14:11:02;;;;;;;;;;;;;;;;;;10544947;28;19947;-68
2022/08/25 14:16:04;;;;;;;;;;;;;;;;;;10546009;28;19924;-68
2022/08/25 14:21:06;;;;;;;;;;;;;;;;;;10545669;28;19924;-68
2022/08/25 14:26:08;;;;;;;;;;;;;;;;;;10545523;28;19954;-68
2022/08/25 14:31:10;;;;;;;;;;;;;;;;;;10545326;28;19931;-68
2022/08/25 14:36:12;;;;;;;;;;;;;;;;;;10545641;28;19954;-68
2022/08/25 14:41:15;;;;;;;;;;;;;;;;;;10544846;28;19931;-68
2022/08/25 14:46:17;;;;;;;;;;;;;;;;;;10544106;28;19931;-68
2022/08/25 14:51:19;;;;;;;;;;;;;;;;;;10543900;28;19947;-68
2022/08/25 14:56:21;;;;;;;;;;;;;;;;;;10544294;28;19924;-68
2022/08/25 15:01:23;;;;;;;;;;;;;;;;;;10543524;28;20398;-68
2022/08/25 15:06:30;;;;;;;;;;;;;;;;;;10543945;28;19924;-68
2022/08/25 15:11:32;;;;;;;;;;;;;;;;;;10543718;28;19924;-67
2022/08/25 15:16:35;;;;;;;;;;;;;;;;;;10543466;28;19924;-67
2022/08/25 15:21:37;;;;;;;;;;;;;;;;;;10542250;28;19924;-67
2022/08/25 15:26:39;;;;;;;;;;;;;;;;;;10543029;28;19939;-67
2022/08/25 15:31:41;;;;;;;;;;;;;;;;;;10543363;28;19951;-67
2022/08/25 15:36:43;;;;;;;;;;;;;;;;;;10542664;28;19928;-67
2022/08/25 15:41:47;;;;;;;;;;;;;;;;;;10542291;28;19924;-67
2022/08/25 15:46:50;;;;;;;;;;;;;;;;;;10542250;28;19977;-67
2022/08/25 15:51:52;;;;;;;;;;;;;;;;;;10542161;28;20077;-67
2022/08/25 15:56:55;;;;;;;;;;;;;;;;;;10542025;28;19924;-66
2022/08/25 16:01:58;;;;;;;;;;;;;;;;;;10540953;28;20329;-66
2022/08/25 16:07:00;;;;;;;;;;;;;;;;;;10541017;28;20355;-66
2022/08/25 16:12:02;;;;;;;;;;;;;;;;;;10541459;28;19924;-66
2022/08/25 16:17:09;;;;;;;;;;;;;;;;;;10541302;28;19925;-66
2022/08/25 16:22:11;;;;;;;;;;;;;;;;;;10540464;28;19930;-66
2022/08/25 16:27:13;;;;;;;;;;;;;;;;;;10541039;28;19928;-66
2022/08/25 16:32:16;;;;;;;;;;;;;;;;;;10539954;28;20279;-65
2022/08/25 16:37:18;;;;;;;;;;;;;;;;;;10540303;28;19935;-66
2022/08/25 16:42:20;;;;;;;;;;;;;;;;;;10540525;28;19924;-65
2022/08/25 16:47:22;;;;;;;;;;;;;;;;;;10540523;28;20007;-65
2022/08/25 16:57:48;;;;;;;;;;;;;;;;;;10540306;28;19931;-65
2022/08/25 17:02:53;;;;;;;;;;;;;;;;;;10539973;28;19924;-65
2022/08/25 17:13:15;;;;;;;;;;;;;;;;;;10539431;28;19963;-65
2022/08/25 17:18:19;;;;;;;;;;;;;;;;;;10539955;28;19931;-65
2022/08/25 17:23:22;;;;;;;;;;;;;;;;;;10539155;28;20371;-65
2022/08/25 17:28:24;;;;;;;;;;;;;;;;;;10539192;28;20382;-64
2022/08/25 17:33:26;;;;;;;;;;;;;;;;;;10540325;28;19928;-64
2022/08/25 17:38:29;;;;;;;;;;;;;;;;;;10538946;28;19924;-64
2022/08/25 17:43:31;;;;;;;;;;;;;;;;;;10541176;28;20370;-64
2022/08/25 17:48:33;;;;;;;;;;;;;;;;;;10546516;28;19932;-64
2022/08/25 17:53:35;;;;;;;;;;;;;;;;;;10546924;28;19924;-64
2022/08/25 17:58:38;;;;;;;;;;;;;;;;;;10547204;28;19924;-64
2022/08/25 18:03:41;;;;;;;;;;;;;;;;;;10546193;28;20371;-63
2022/08/25 18:08:43;;;;;;;;;;;;;;;;;;10545646;28;20298;-64
2022/08/25 18:13:46;;;;;;;;;;;;;;;;;;10545477;28;20003;-63
2022/08/25 18:18:48;;;;;;;;;;;;;;;;;;10545911;28;19931;-63
2022/08/25 18:23:50;;;;;;;;;;;;;;;;;;10544995;28;20367;-63
2022/08/25 18:28:52;;;;;;;;;;;;;;;;;;10544851;28;19931;-63
2022/08/25 18:33:54;;;;;;;;;;;;;;;;;;10544687;28;20413;-63
2022/08/25 18:44:17;;;;;;;;;;;;;;;;;;10544116;28;20489;-63
2022/08/25 18:49:19;;;;;;;;;;;;;;;;;;10526858;28;19931;-63
2022/08/25 18:54:22;;;;;;;;;;;;;;;;;;10544022;28;19931;-63
2022/08/25 18:59:24;;;;;;;;;;;;;;;;;;10543681;28;19928;-63
2022/08/25 19:04:26;;;;;;;;;;;;;;;;;;10543619;28;19924;-63
2022/08/25 19:09:32;;;;;;;;;;;;;;;;;;10544528;28;20306;-63
2022/08/25 19:14:34;;;;;;;;;;;;;;;;;;10542859;28;19932;-63
2022/08/25 19:19:36;;;;;;;;;;;;;;;;;;10543149;28;19924;-63
2022/08/25 19:24:38;;;;;;;;;;;;;;;;;;10542873;28;19973;-62
2022/08/25 19:29:41;;;;;;;;;;;;;;;;;;10525005;28;19924;-62
2022/08/25 19:34:43;;;;;;;;;;;;;;;;;;10542628;28;19931;-62
2022/08/25 19:39:46;;;;;;;;;;;;;;;;;;10542009;28;19928;-62
2022/08/25 19:44:53;;;;;;;;;;;;;;;;;;10542214;28;19924;-62
2022/08/25 19:49:57;;;;;;;;;;;;;;;;;;10542107;28;19924;-62
2022/08/25 19:55:01;;;;;;;;;;;;;;;;;;10541907;28;19923;-62
2022/08/25 20:00:03;;;;;;;;;;;;;;;;;;10541393;28;19924;-62
2022/08/25 20:05:05;;;;;;;;;;;;;;;;;;10540886;28;19924;-62
2022/08/25 20:10:08;;;;;;;;;;;;;;;;;;10541539;28;19931;-62
2022/08/25 20:15:10;;;;;;;;;;;;;;;;;;10541913;28;19928;-62
2022/08/25 20:20:12;;;;;;;;;;;;;;;;;;10540479;28;20317;-62
2022/08/25 20:25:15;;;;;;;;;;;;;;;;;;10541684;28;19935;-62
2022/08/25 20:30:19;;;;;;;;;;;;;;;;;;10540889;28;19924;-62
2022/08/25 20:35:21;;;;;;;;;;;;;;;;;;10540818;28;19924;-62
2022/08/25 20:40:27;;;;;;;;;;;;;;;;;;10540057;28;20372;-62
2022/08/25 20:45:30;;;;;;;;;;;;;;;;;;10540404;28;19954;-62
2022/08/25 20:50:32;;;;;;;;;;;;;;;;;;10540470;28;19924;-62
2022/08/25 20:55:34;;;;;;;;;;;;;;;;;;10539795;28;19932;-62
2022/08/25 21:00:41;;;;;;;;;;;;;;;;;;10540105;28;19924;-62
2022/08/25 21:05:43;;;;;;;;;;;;;;;;;;10539507;28;19924;-62
2022/08/25 21:10:45;;;;;;;;;;;;;;;;;;10539456;28;20402;-62
2022/08/25 21:15:47;;;;;;;;;;;;;;;;;;10539994;28;19931;-62
2022/08/25 21:20:50;;;;;;;;;;;;;;;;;;10546304;28;19931;-62
2022/08/25 21:25:52;;;;;;;;;;;;;;;;;;10547983;28;19924;-62
2022/08/25 21:30:54;;;;;;;;;;;;;;;;;;10547143;28;19932;-62
2022/08/25 21:35:56;;;;;;;;;;;;;;;;;;10547361;28;19924;-62
2022/08/25 21:40:59;;;;;;;;;;;;;;;;;;10547424;28;19924;-61
2022/08/25 21:46:01;;;;;;;;;;;;;;;;;;10547313;28;19924;-61
2022/08/25 21:51:03;;;;;;;;;;;;;;;;;;10547015;28;19924;-61
2022/08/25 21:56:05;;;;;;;;;;;;;;;;;;10546243;28;20397;-62
2022/08/25 22:01:07;;;;;;;;;;;;;;;;;;10547188;28;19931;-61
2022/08/25 22:06:11;;;;;;;;;;;;;;;;;;10546296;28;19924;-62
2022/08/25 22:11:13;;;;;;;;;;;;;;;;;;10546235;28;19924;-61
2022/08/25 22:16:18;;;;;;;;;;;;;;;;;;10546008;28;19928;-62
2022/08/25 22:21:22;;;;;;;;;;;;;;;;;;10545894;28;19924;-62
2022/08/25 22:26:24;;;;;;;;;;;;;;;;;;10544910;28;19924;-62
2022/08/25 22:31:28;;;;;;;;;;;;;;;;;;10544981;28;19940;-62
2022/08/25 22:36:30;;;;;;;;;;;;;;;;;;10544601;28;19924;-62
2022/08/25 22:41:33;;;;;;;;;;;;;;;;;;10544937;28;19931;-62
2022/08/25 22:46:35;;;;;;;;;;;;;;;;;;10544822;28;19925;-62
2022/08/25 22:51:37;;;;;;;;;;;;;;;;;;10543990;28;19931;-61
2022/08/25 22:56:39;;;;;;;;;;;;;;;;;;10543753;28;19932;-62
2022/08/25 23:01:41;;;;;;;;;;;;;;;;;;10543964;28;19924;-61
2022/08/25 23:06:43;;;;;;;;;;;;;;;;;;10543340;28;19930;-62
2022/08/25 23:11:45;;;;;;;;;;;;;;;;;;10544259;28;19931;-61
2022/08/25 23:16:48;;;;;;;;;;;;;;;;;;10526006;28;19931;-61
2022/08/25 23:22:09;;;;;;;;;;;;;;;;;;10543489;28;19931;-61
2022/08/25 23:27:11;;;;;;;;;;;;;;;;;;10542952;28;19927;-61
2022/08/25 23:32:13;;;;;;;;;;;;;;;;;;10543010;28;19935;-61
2022/08/25 23:37:15;;;;;;;;;;;;;;;;;;10542832;28;20003;-61
2022/08/25 23:42:20;;;;;;;;;;;;;;;;;;10541034;28;20427;-61
2022/08/25 23:47:22;;;;;;;;;;;;;;;;;;10542542;28;19930;-61
2022/08/25 23:52:24;;;;;;;;;;;;;;;;;;10542222;28;19924;-61
2022/08/25 23:57:26;;;;;;;;;;;;;;;;;;10541992;28;19924;-61
